Enns, Austria
Current Conditions -  °F | °C
As of 3:50 AM on Tuesday 21 Oct 2014 (Local Time) from LOWL Reporting Station
Moderate Rain Moderate Rain  
Wind Chill: 57°   Ceiling: 5000
Heat Index: 57°   Visibility: 5mi
Dew Point: 55°   Wind: 13mph
Humidity: 94%   Direction: 230°SW
Pressure: 29.97"   Gusts: NA
Location:  48.22°N, 14.48°E
Report Text: LOWL 210150Z 23011KT 8000 RA SCT025 BKN050 14/13 Q1015 TEMPO -RA
Loading
Personal Weather Stations






























Interactive Weather Map
Tropical Storm Tracking
New forecast layout! Learn more

10-Day Weather Forecast

Advertisements
Track Severe Weather on mobile